EST,Max TemperatureF,Mean TemperatureF,Min TemperatureF,Max Dew PointF,MeanDew PointF,Min DewpointF,Max Humidity, Mean Humidity, Min Humidity, Max Sea Level PressureIn, Mean Sea Level PressureIn, Min Sea Level PressureIn, Max VisibilityMiles, Mean VisibilityMiles, Min VisibilityMiles, Max Wind SpeedMPH, Mean Wind SpeedMPH, Max Gust SpeedMPH,PrecipitationIn, CloudCover, Events, WindDirDegrees
2012-12-1,69,53,37,52,43,35,97,78,40,30.38,30.33,30.30,10,8,5,6,1,,0.00,3,,145
2012-12-2,71,55,39,55,46,39,97,80,47,30.39,30.33,30.27,10,9,5,6,1,,0.00,2,,235
2012-12-3,73,56,39,54,46,38,96,77,41,30.35,30.29,30.24,10,10,7,7,1,,0.00,2,,168
2012-12-4,71,55,39,55,48,38,96,82,51,30.35,30.29,30.23,10,9,1,6,1,,0.00,3,,175
2012-12-5,71,60,48,58,52,46,97,84,53,30.25,30.18,30.14,10,9,7,7,1,,0.00,5,,325
2012-12-6,66,57,48,55,48,42,97,76,54,30.18,30.13,30.09,10,9,2,12,3,17,0.00,6,,84
2012-12-7,64,56,48,49,45,42,94,76,56,30.13,30.07,29.99,10,10,8,8,5,,0.00,6,,96
2012-12-8,71,60,48,60,54,47,100,87,55,30.06,30.03,29.99,10,6,0,5,1,,0.05,7,Fog-Rain,172
2012-12-9,72,62,51,61,55,51,100,89,53,30.11,30.06,29.98,10,5,1,8,1,18,0.01,6,,171
2012-12-10,68,60,52,60,57,48,96,89,73,29.97,29.82,29.75,10,8,0,15,4,25,1.06,7,Fog-Rain-Thunderstorm,263
2012-12-11,51,44,37,46,35,30,83,73,61,30.16,30.02,29.87,10,10,10,16,11,21,0.00,2,,320
2012-12-12,51,44,37,41,36,30,82,72,59,30.25,30.20,30.15,10,10,9,8,4,,0.00,4,Rain,22
2012-12-13,57,46,33,38,36,30,93,71,47,30.37,30.31,30.23,10,10,8,7,3,,0.00,3,,66
2012-12-14,60,44,28,40,33,27,96,78,42,30.40,30.32,30.21,10,10,8,9,1,,0.00,1,,116
2012-12-15,60,50,39,46,42,37,93,77,53,30.26,30.16,30.09,10,10,9,8,1,,0.02,4,Rain,150
2012-12-16,60,55,50,57,54,45,100,91,80,30.06,29.97,29.92,10,6,1,13,2,,1.08,8,Rain,292
2012-12-17,57,54,51,56,53,50,100,95,87,29.92,29.84,29.75,10,8,1,13,4,,0.37,6,Rain,180
2012-12-18,61,48,33,54,40,28,94,73,29,30.05,29.92,29.78,10,10,10,12,5,17,0.00,1,,284
2012-12-19,68,49,30,48,37,29,96,76,37,30.14,30.08,30.04,10,10,9,6,1,,0.00,0,,229
2012-12-20,60,48,36,59,46,27,100,83,51,30.06,29.84,29.70,10,6,0,21,5,33,0.89,6,Fog-Rain,200
2012-12-21,46,40,34,27,18,14,53,41,29,30.20,30.08,29.94,10,10,10,20,13,33,0.00,1,,290
2012-12-22,54,40,27,23,15,8,78,43,16,30.32,30.25,30.21,10,10,10,14,9,24,0.08,0,,304
2012-12-23,55,39,23,34,27,20,88,64,33,30.25,30.18,30.08,10,10,10,7,1,,0.00,3,,193
2012-12-24,59,52,46,55,48,32,100,92,56,30.06,29.94,29.87,10,5,0,14,2,,1.00,6,Fog-Rain-Thunderstorm,157
2012-12-25,55,52,48,54,51,48,100,97,93,30.01,29.92,29.70,10,4,0,14,4,23,1.00,8,Fog-Rain-Thunderstorm,97
2012-12-26,60,48,36,57,41,28,96,78,61,30.04,29.71,29.51,10,9,2,17,12,31,0.77,8,Rain,239
2012-12-27,45,36,28,30,29,27,92,73,55,30.13,30.09,30.03,10,10,7,20,10,28,0.00,3,,303
2012-12-28,53,40,28,40,31,27,92,72,37,30.14,30.04,29.88,10,8,4,8,2,,0.18,2,Rain,109
2012-12-29,43,39,35,41,34,25,96,80,65,30.26,30.00,29.78,10,8,2,16,7,28,0.26,8,Rain,300
2012-12-30,48,38,27,28,23,19,92,64,32,30.48,30.40,30.28,10,10,10,14,8,18,0.00,0,,317
2012-12-31,53,40,27,38,30,24,92,64,37,30.43,30.32,30.16,10,10,6,6,1,,0.00,4,,215